»·PEaware :: N121RP KSAN-KBUR

N121RP :: KSAN-KBUR

FLIGHT INFORMATION

Flight Status: Arrived
Operator: Privately registered:
United States
More flights under this callsign
Pilot: Robert S. (23462)
Aircraft: BOEING 737-200
(B732)
More flights by this aircraft type
Origin: KSAN San Diego Intl-Lindbergh
United States
Destination: KBUR Bob Hope-Burbank
United States
More flights between these airports :: More routes between these airports
Route: CWARD2 LAX SILEX
File this flight plan on PilotEdge
Remarks:
Altitude:
(Current/Filed)
10,000ft
Speed:
(Current/Filed)
250kts
Departed: 10-Feb-19 11:35 PM
Arrived: 11-Feb-19 12:33 AM
Distance/Time
Traveled:
106nm/0:58
Distance/Time
To Go:
Arrived

Flight Plot

Page will automatically refresh every two minutes.

Flight plan parsing failed; only flown route is shown


Map Options




Map Legend


Flown Route
Filed Route
Departure Airport
Arrival Airport
Navaid (VOR, NDB)
Fix

Horizontal Profiles

Position Reports

Time Latitude Longitude Heading Altitude Ground
Speed
10-Feb-19 23:17 32.733215 -117.196769 163 23ft 0kts
10-Feb-19 23:18 32.733215 -117.196769 163 23ft 0kts
10-Feb-19 23:19 32.733215 -117.196769 163 23ft 0kts
10-Feb-19 23:20 32.733215 -117.196769 163 23ft 0kts
10-Feb-19 23:21 32.733215 -117.196769 163 23ft 0kts
10-Feb-19 23:22 32.733215 -117.196769 163 23ft 0kts
10-Feb-19 23:23 32.733215 -117.196769 163 23ft 0kts
10-Feb-19 23:24 32.733215 -117.196769 163 23ft 0kts
10-Feb-19 23:25 32.733589 -117.196900 163 23ft 0kts
10-Feb-19 23:26 32.733785 -117.196432 116 23ft 0kts
10-Feb-19 23:27 32.733368 -117.195458 116 22ft 5kts
10-Feb-19 23:28 32.733135 -117.194020 87 23ft 0kts
10-Feb-19 23:29 32.733147 -117.192350 92 23ft 0kts
10-Feb-19 23:30 32.733147 -117.192348 92 23ft 0kts
10-Feb-19 23:30 32.733147 -117.192346 92 23ft 0kts
10-Feb-19 23:32 32.732292 -117.189220 107 23ft 19kts
10-Feb-19 23:33 32.730688 -117.181938 105 23ft 13kts
10-Feb-19 23:33 32.729478 -117.176859 91 23ft 13kts
10-Feb-19 23:34 32.731131 -117.179430 288 23ft 85kts
10-Feb-19 23:36 32.751310 -117.233610 303 3165ft 156kts
10-Feb-19 23:37 32.782037 -117.287732 303 4825ft 222kts
10-Feb-19 23:37 32.814201 -117.341692 306 7898ft 249kts
10-Feb-19 23:38 32.857848 -117.408978 306 9972ft 257kts
10-Feb-19 23:39 32.900354 -117.474483 306 9969ft 244kts
10-Feb-19 23:40 32.941952 -117.539122 306 9967ft 246kts
10-Feb-19 23:41 32.983423 -117.603882 306 9971ft 246kts
10-Feb-19 23:42 33.024944 -117.668872 306 9971ft 246kts
10-Feb-19 23:43 33.067102 -117.732776 313 9971ft 246kts
10-Feb-19 23:44 33.119191 -117.786035 318 9971ft 246kts
10-Feb-19 23:45 33.171279 -117.838874 318 9967ft 246kts
10-Feb-19 23:46 33.233382 -117.872212 344 9966ft 250kts
10-Feb-19 23:47 33.301522 -117.888759 344 9962ft 249kts
10-Feb-19 23:48 33.362234 -117.903834 345 9960ft 249kts
10-Feb-19 23:49 33.419578 -117.942190 321 9955ft 245kts
10-Feb-19 23:50 33.473144 -117.993243 321 9952ft 245kts
10-Feb-19 23:51 33.526521 -118.044052 322 9953ft 244kts
10-Feb-19 23:52 33.572593 -118.087904 322 9954ft 244kts
10-Feb-19 23:53 33.612542 -118.125950 322 9954ft 244kts
10-Feb-19 23:54 33.665870 -118.176662 322 9960ft 244kts
10-Feb-19 23:55 33.719358 -118.227269 322 9960ft 244kts
10-Feb-19 23:56 33.771724 -118.277177 322 9962ft 244kts
10-Feb-19 23:57 33.814730 -118.318332 322 9964ft 244kts
10-Feb-19 23:58 33.868116 -118.369538 322 9969ft 245kts
10-Feb-19 23:59 33.920503 -118.419826 322 9211ft 253kts
11-Feb-19 00:00 33.980073 -118.463671 332 7238ft 256kts
11-Feb-19 00:01 34.041860 -118.504682 331 6006ft 243kts
11-Feb-19 00:02 34.099935 -118.543591 331 5997ft 239kts
11-Feb-19 00:03 34.158195 -118.582762 331 5994ft 239kts
11-Feb-19 00:04 34.170545 -118.591067 331 5994ft 239kts
11-Feb-19 00:05 34.170545 -118.591067 331 5994ft 239kts
11-Feb-19 00:06 34.170777 -118.591223 331 5994ft 239kts
11-Feb-19 00:07 34.219058 -118.643614 301 5998ft 239kts
11-Feb-19 00:08 34.253435 -118.693538 318 5246ft 239kts
11-Feb-19 00:09 34.307836 -118.735880 329 5192ft 239kts
11-Feb-19 00:10 34.365703 -118.775850 343 5156ft 241kts
11-Feb-19 00:11 34.416540 -118.732892 75 5200ft 257kts
11-Feb-19 00:12 34.420208 -118.648216 111 5192ft 266kts
11-Feb-19 00:13 34.384276 -118.570069 130 5083ft 259kts
11-Feb-19 00:14 34.336561 -118.515861 134 4691ft 199kts
11-Feb-19 00:15 34.304525 -118.479020 134 4193ft 141kts
11-Feb-19 00:16 34.275978 -118.445934 134 3411ft 141kts
11-Feb-19 00:17 34.258185 -118.424254 127 2759ft 136kts
11-Feb-19 00:18 34.238734 -118.386758 117 1798ft 138kts
11-Feb-19 00:19 34.211294 -118.359282 164 1019ft 125kts
11-Feb-19 00:20 34.171340 -118.365775 223 2558ft 185kts
11-Feb-19 00:21 34.161501 -118.417260 278 6052ft 169kts
11-Feb-19 00:22 34.136249 -118.471618 191 7642ft 280kts
11-Feb-19 00:23 34.062852 -118.458722 169 7183ft 290kts
11-Feb-19 00:24 34.016578 -118.404070 101 5410ft 260kts
11-Feb-19 00:25 34.010190 -118.332835 68 2984ft 187kts
11-Feb-19 00:26 34.043197 -118.311396 337 2173ft 123kts
11-Feb-19 00:27 34.073245 -118.328619 351 2109ft 123kts
11-Feb-19 00:28 34.106782 -118.336294 350 2186ft 121kts
11-Feb-19 00:29 34.142296 -118.343581 349 1829ft 139kts
11-Feb-19 00:30 34.183089 -118.352857 346 1020ft 147kts
11-Feb-19 00:31 34.180129 -118.352061 346 1085ft 152kts
11-Feb-19 00:32 34.203363 -118.358167 342 729ft 0kts
11-Feb-19 00:33 34.203363 -118.358167 342 729ft 0kts
11-Feb-19 00:34 34.203363 -118.358167 342 729ft 0kts
11-Feb-19 00:35 34.203363 -118.358167 342 729ft 0kts
11-Feb-19 00:36 34.203363 -118.358167 342 729ft 0kts

Navigation Log

Ident Type
Flight plan parsing failed, navigation log unavailable